Time;durP1;ratioP1;P1;durP2;ratioP2;P2;SDS_P1;SDS_P2;PMS_P1;PMS_P2;Temp;Humidity;BMP_temperature;BMP_pressure;BME280_temperature;BME280_humidity;BME280_pressure;Samples;Min_cycle;Max_cycle;Signal;HPM_P1;HPM_P2
2022/12/28 00:02:15;;;;;;;4.90;2.67;;;;;;;;;;5059365;28;20457;-71
2022/12/28 00:07:24;;;;;;;4.00;1.67;;;;;;;;;;5065505;28;20430;-71
2022/12/28 00:09:58;;;;;;;5.90;1.00;;;;;;;;;;5056201;28;20479;-71
2022/12/28 00:12:26;;;;;;;6.63;2.77;;;;;;;;;;5071103;28;20455;-71
2022/12/28 00:14:56;;;;;;;3.63;1.80;;;;;;;;;;5059745;28;20483;-71
2022/12/28 00:17:27;;;;;;;10.50;7.00;;;;;;;;;;5069854;28;20477;-71
2022/12/28 00:19:58;;;;;;;6.40;3.23;;;;;;;;;;5060581;28;20528;-72
2022/12/28 00:22:32;;;;;;;2.47;1.50;;;;;;;;;;5063782;28;20532;-69
2022/12/28 00:25:03;;;;;;;3.10;1.73;;;;;;;;;;5054920;28;20527;-72
2022/12/28 00:27:30;;;;;;;2.57;1.23;;;;;;;;;;5072380;28;20456;-71
2022/12/28 00:30:00;;;;;;;3.47;1.67;;;;;;;;;;5075846;28;20445;-71
2022/12/28 00:32:28;;;;;;;7.23;1.83;;;;;;;;;;5064660;28;20460;-71
2022/12/28 00:34:56;;;;;;;2.80;1.90;;;;;;;;;;5076238;28;20481;-71
2022/12/28 00:37:31;;;;;;;11.60;3.10;;;;;;;;;;5058570;28;20466;-71
2022/12/28 00:39:59;;;;;;;2.63;1.43;;;;;;;;;;5058693;28;21189;-72
2022/12/28 00:42:27;;;;;;;3.77;1.70;;;;;;;;;;5062614;28;20460;-71
2022/12/28 00:45:05;;;;;;;3.80;2.17;;;;;;;;;;5056464;28;20465;-70
2022/12/28 00:47:37;;;;;;;2.70;1.33;;;;;;;;;;5065399;28;20487;-70
2022/12/28 00:50:07;;;;;;;4.00;1.53;;;;;;;;;;5075815;28;20510;-70
2022/12/28 00:52:34;;;;;;;5.27;1.47;;;;;;;;;;5076255;28;20871;-70
2022/12/28 00:55:03;;;;;;;4.80;2.63;;;;;;;;;;5075563;28;20872;-71
2022/12/28 00:57:36;;;;;;;4.77;1.87;;;;;;;;;;5075210;28;20805;-71
2022/12/28 01:00:04;;;;;;;4.23;2.20;;;;;;;;;;5069851;28;20539;-71
2022/12/28 01:02:31;;;;;;;4.37;1.87;;;;;;;;;;5057601;28;20940;-72
2022/12/28 01:05:00;;;;;;;4.00;1.40;;;;;;;;;;5060760;28;20466;-71
2022/12/28 01:07:31;;;;;;;2.90;1.53;;;;;;;;;;5059770;28;20870;-71
2022/12/28 01:10:00;;;;;;;7.30;1.70;;;;;;;;;;5059071;28;20527;-71
2022/12/28 01:12:29;;;;;;;2.33;1.20;;;;;;;;;;5059487;28;20473;-71
2022/12/28 01:14:57;;;;;;;4.60;2.40;;;;;;;;;;5060027;28;20797;-72
2022/12/28 01:17:29;;;;;;;2.97;1.50;;;;;;;;;;5062586;28;20463;-71
2022/12/28 01:20:03;;;;;;;3.17;1.47;;;;;;;;;;5078804;28;20779;-70
2022/12/28 01:22:38;;;;;;;2.60;0.93;;;;;;;;;;5078168;28;20498;-70
2022/12/28 01:25:11;;;;;;;3.93;1.10;;;;;;;;;;5077669;28;20503;-71
2022/12/28 01:27:39;;;;;;;2.77;1.20;;;;;;;;;;5075725;28;20459;-72
2022/12/28 01:30:17;;;;;;;2.10;1.23;;;;;;;;;;5078706;28;20456;-70
2022/12/28 01:32:48;;;;;;;7.17;1.77;;;;;;;;;;5077560;28;20445;-71
2022/12/28 01:35:22;;;;;;;5.33;1.63;;;;;;;;;;5073125;28;20518;-71
2022/12/28 01:37:52;;;;;;;3.03;1.20;;;;;;;;;;5077842;28;20502;-71
2022/12/28 01:40:33;;;;;;;3.80;1.10;;;;;;;;;;5078958;28;20579;-71
2022/12/28 01:43:01;;;;;;;5.87;1.73;;;;;;;;;;5078594;28;20464;-72
2022/12/28 01:45:38;;;;;;;3.70;1.37;;;;;;;;;;5077165;28;20466;-72
2022/12/28 01:48:29;;;;;;;2.90;1.67;;;;;;;;;;5078709;28;20452;-70
2022/12/28 01:50:57;;;;;;;4.47;1.40;;;;;;;;;;5078154;28;20939;-71
2022/12/28 01:53:34;;;;;;;1.83;1.10;;;;;;;;;;5078542;28;20833;-71
2022/12/28 01:58:44;;;;;;;5.43;1.23;;;;;;;;;;5057629;28;20482;-71
2022/12/28 02:01:24;;;;;;;2.50;1.10;;;;;;;;;;5058322;28;20461;-70
2022/12/28 02:04:04;;;;;;;4.43;1.50;;;;;;;;;;5057705;28;20464;-70
2022/12/28 02:06:34;;;;;;;1.90;0.90;;;;;;;;;;5058048;28;20453;-70
2022/12/28 02:09:23;;;;;;;2.93;1.40;;;;;;;;;;5059036;28;20527;-72
2022/12/28 02:11:58;;;;;;;8.37;3.43;;;;;;;;;;5058356;28;20475;-72
2022/12/28 02:14:36;;;;;;;1.43;0.73;;;;;;;;;;5057491;28;20471;-71
2022/12/28 02:17:22;;;;;;;1.90;0.90;;;;;;;;;;5058426;28;20445;-70
2022/12/28 02:20:05;;;;;;;3.03;1.17;;;;;;;;;;5057090;28;20916;-72
2022/12/28 02:22:48;;;;;;;5.40;2.10;;;;;;;;;;5058002;28;20453;-71
2022/12/28 02:25:39;;;;;;;4.23;2.50;;;;;;;;;;5057856;28;20538;-71
2022/12/28 02:28:12;;;;;;;3.60;1.23;;;;;;;;;;5057798;28;20470;-72
2022/12/28 02:30:44;;;;;;;3.20;1.50;;;;;;;;;;5058338;28;20441;-70
2022/12/28 02:33:16;;;;;;;2.60;1.03;;;;;;;;;;5057734;28;20499;-71
2022/12/28 02:35:46;;;;;;;5.47;1.57;;;;;;;;;;5068486;28;20460;-71
2022/12/28 02:38:16;;;;;;;3.43;1.27;;;;;;;;;;5078869;28;20884;-70
2022/12/28 02:40:46;;;;;;;2.43;1.00;;;;;;;;;;5077903;28;20493;-71
2022/12/28 02:43:14;;;;;;;3.40;1.47;;;;;;;;;;5077838;28;20871;-70
2022/12/28 02:51:54;;;;;;;3.43;1.67;;;;;;;;;;5018888;28;20444;-71
2022/12/28 02:57:30;;;;;;;6.37;1.80;;;;;;;;;;5057612;28;20488;-71
2022/12/28 03:00:04;;;;;;;2.30;1.10;;;;;;;;;;5057392;28;20481;-71
2022/12/28 03:02:41;;;;;;;3.00;1.10;;;;;;;;;;5056923;28;20519;-71
2022/12/28 03:05:13;;;;;;;5.27;1.90;;;;;;;;;;5057630;28;20499;-71
2022/12/28 03:10:33;;;;;;;2.30;0.70;;;;;;;;;;5057657;28;20421;-71
2022/12/28 03:13:02;;;;;;;3.30;1.50;;;;;;;;;;5071784;28;20474;-71
2022/12/28 03:15:31;;;;;;;2.93;1.23;;;;;;;;;;5075278;28;20453;-71
2022/12/28 03:31:52;;;;;;;1.67;0.90;;;;;;;;;;5076610;28;20462;-71
2022/12/28 03:34:21;;;;;;;1.77;1.03;;;;;;;;;;5057773;28;20869;-71
2022/12/28 03:36:53;;;;;;;7.47;1.13;;;;;;;;;;5076002;28;20436;-71
2022/12/28 03:39:26;;;;;;;2.03;1.13;;;;;;;;;;5077043;28;20480;-71
2022/12/28 03:44:42;;;;;;;3.70;1.17;;;;;;;;;;5076653;28;20482;-71
2022/12/28 03:47:10;;;;;;;3.00;1.53;;;;;;;;;;5076609;28;20486;-71
2022/12/28 03:49:40;;;;;;;3.80;1.13;;;;;;;;;;5077314;28;20452;-71
2022/12/28 03:52:08;;;;;;;4.00;1.70;;;;;;;;;;5074235;28;20457;-70
2022/12/28 03:54:36;;;;;;;4.70;1.93;;;;;;;;;;5074761;28;20526;-70
2022/12/28 03:57:04;;;;;;;6.53;2.13;;;;;;;;;;5073755;28;20786;-71
2022/12/28 03:59:32;;;;;;;3.17;1.57;;;;;;;;;;5076722;28;20742;-70
2022/12/28 04:01:59;;;;;;;3.43;1.90;;;;;;;;;;5075865;28;20449;-71
2022/12/28 04:04:27;;;;;;;6.07;1.73;;;;;;;;;;5076204;28;20541;-70
2022/12/28 04:06:56;;;;;;;2.93;1.70;;;;;;;;;;5058063;28;20449;-71
2022/12/28 04:09:24;;;;;;;1.50;0.80;;;;;;;;;;5056127;28;20454;-71
2022/12/28 04:11:51;;;;;;;3.77;1.50;;;;;;;;;;5056333;28;20449;-71
2022/12/28 04:14:22;;;;;;;2.30;2.10;;;;;;;;;;5056543;28;20457;-71
2022/12/28 04:16:50;;;;;;;2.60;1.57;;;;;;;;;;5056101;28;20462;-71
2022/12/28 04:19:17;;;;;;;4.83;3.10;;;;;;;;;;5056022;28;20453;-70
2022/12/28 04:21:45;;;;;;;2.27;1.17;;;;;;;;;;5056071;28;20450;-71
2022/12/28 04:24:14;;;;;;;1.80;0.90;;;;;;;;;;5055815;28;20457;-71
2022/12/28 04:26:42;;;;;;;3.57;1.30;;;;;;;;;;5056129;28;20446;-71
2022/12/28 04:29:09;;;;;;;3.30;1.23;;;;;;;;;;5055823;28;20857;-71
2022/12/28 04:31:37;;;;;;;2.13;1.07;;;;;;;;;;5055565;28;20927;-71
2022/12/28 04:34:05;;;;;;;1.83;1.03;;;;;;;;;;5056448;28;20449;-71
2022/12/28 04:36:33;;;;;;;5.63;1.43;;;;;;;;;;5066044;28;20444;-71
2022/12/28 04:39:00;;;;;;;3.33;1.60;;;;;;;;;;5080553;28;20463;-71
2022/12/28 04:41:29;;;;;;;2.77;1.50;;;;;;;;;;5079583;28;20494;-71
2022/12/28 04:43:57;;;;;;;4.07;1.57;;;;;;;;;;5079878;28;20456;-71
2022/12/28 04:46:25;;;;;;;5.00;1.63;;;;;;;;;;5077329;28;20741;-70
2022/12/28 04:48:55;;;;;;;4.20;1.80;;;;;;;;;;5059971;28;20464;-71
2022/12/28 04:51:24;;;;;;;4.77;1.27;;;;;;;;;;5060367;28;20457;-71
2022/12/28 04:53:51;;;;;;;2.27;1.10;;;;;;;;;;5059201;28;20753;-71
2022/12/28 04:56:20;;;;;;;4.43;1.70;;;;;;;;;;5069224;28;21124;-71
2022/12/28 04:58:49;;;;;;;1.77;1.00;;;;;;;;;;5079433;28;20479;-71
2022/12/28 05:01:18;;;;;;;4.37;2.57;;;;;;;;;;5059518;28;20481;-71
2022/12/28 05:03:47;;;;;;;3.93;1.27;;;;;;;;;;5058997;28;20461;-71
2022/12/28 05:06:15;;;;;;;2.80;1.10;;;;;;;;;;5059963;28;20858;-71
2022/12/28 05:08:43;;;;;;;3.13;1.80;;;;;;;;;;5059865;28;20523;-71
2022/12/28 05:11:12;;;;;;;4.50;1.67;;;;;;;;;;5059207;28;20785;-71
2022/12/28 05:13:40;;;;;;;5.30;1.10;;;;;;;;;;5059235;28;20465;-71
2022/12/28 05:16:10;;;;;;;3.53;1.70;;;;;;;;;;5071824;28;20732;-71
2022/12/28 05:18:38;;;;;;;4.80;2.50;;;;;;;;;;5078991;28;20467;-71
2022/12/28 05:21:08;;;;;;;2.70;1.37;;;;;;;;;;5079055;28;20549;-71
2022/12/28 05:23:36;;;;;;;3.30;2.27;;;;;;;;;;5079257;28;20513;-71
2022/12/28 05:26:04;;;;;;;2.90;1.50;;;;;;;;;;5074700;28;20543;-71
2022/12/28 05:28:32;;;;;;;5.90;2.00;;;;;;;;;;5070633;28;20527;-71
2022/12/28 05:31:00;;;;;;;11.17;4.37;;;;;;;;;;5059198;28;20445;-70
2022/12/28 05:33:30;;;;;;;3.20;2.07;;;;;;;;;;5058791;28;20475;-70
2022/12/28 05:35:58;;;;;;;3.53;1.70;;;;;;;;;;5058805;28;20457;-71
2022/12/28 05:38:26;;;;;;;5.40;2.57;;;;;;;;;;5058782;28;20939;-71
2022/12/28 05:40:53;;;;;;;7.00;3.50;;;;;;;;;;5058505;28;20496;-71
2022/12/28 05:43:21;;;;;;;6.20;1.87;;;;;;;;;;5072171;28;20518;-71
2022/12/28 05:45:48;;;;;;;3.30;2.37;;;;;;;;;;5078754;28;20444;-70
2022/12/28 05:48:16;;;;;;;3.60;2.00;;;;;;;;;;5078214;28;20799;-71
2022/12/28 05:50:46;;;;;;;2.30;1.40;;;;;;;;;;5078246;28;20476;-71
2022/12/28 05:53:13;;;;;;;3.83;2.20;;;;;;;;;;5066245;28;20497;-71
2022/12/28 05:55:41;;;;;;;3.10;2.13;;;;;;;;;;5058032;28;20450;-71
2022/12/28 05:58:09;;;;;;;5.80;2.47;;;;;;;;;;5058715;28;20458;-71
2022/12/28 06:00:39;;;;;;;3.80;1.80;;;;;;;;;;5060197;28;20488;-71
2022/12/28 06:03:09;;;;;;;5.83;2.17;;;;;;;;;;5072005;28;20465;-71
2022/12/28 06:05:37;;;;;;;4.73;4.33;;;;;;;;;;5075275;28;20457;-71
2022/12/28 06:08:06;;;;;;;2.93;1.70;;;;;;;;;;5058818;28;20528;-71
2022/12/28 06:10:34;;;;;;;6.07;1.90;;;;;;;;;;5061031;28;20599;-71
2022/12/28 06:13:01;;;;;;;3.60;2.93;;;;;;;;;;5073664;28;20473;-72
2022/12/28 06:15:30;;;;;;;11.50;3.33;;;;;;;;;;5058100;28;20479;-71
2022/12/28 06:17:57;;;;;;;3.73;3.33;;;;;;;;;;5057952;28;20834;-71
2022/12/28 06:20:25;;;;;;;3.20;2.27;;;;;;;;;;5057937;28;20492;-71
2022/12/28 06:22:55;;;;;;;3.53;3.23;;;;;;;;;;5057147;28;20855;-71
2022/12/28 06:25:24;;;;;;;4.40;3.60;;;;;;;;;;5059417;28;20457;-71
2022/12/28 06:27:52;;;;;;;5.23;4.83;;;;;;;;;;5077084;28;20754;-71
2022/12/28 06:30:20;;;;;;;5.70;3.50;;;;;;;;;;5077225;28;20455;-71
2022/12/28 06:32:48;;;;;;;4.70;3.90;;;;;;;;;;5059508;28;20472;-71
2022/12/28 06:35:17;;;;;;;5.70;5.03;;;;;;;;;;5057794;28;20457;-70
2022/12/28 06:37:45;;;;;;;3.77;3.13;;;;;;;;;;5057052;28;20865;-70
2022/12/28 06:40:13;;;;;;;3.40;3.10;;;;;;;;;;5057171;28;20489;-70
2022/12/28 06:42:42;;;;;;;10.93;5.37;;;;;;;;;;5058407;28;20446;-70
2022/12/28 06:45:10;;;;;;;4.07;3.67;;;;;;;;;;5062185;28;20864;-70
2022/12/28 06:47:43;;;;;;;6.33;5.77;;;;;;;;;;5076584;28;20824;-71
2022/12/28 06:50:10;;;;;;;4.90;2.90;;;;;;;;;;5077445;28;20452;-71
2022/12/28 06:52:41;;;;;;;3.40;2.40;;;;;;;;;;5077034;28;20448;-71
2022/12/28 06:55:08;;;;;;;8.50;3.47;;;;;;;;;;5077076;28;20452;-71
2022/12/28 06:57:36;;;;;;;5.63;2.80;;;;;;;;;;5066480;28;20454;-71
2022/12/28 07:00:06;;;;;;;6.87;2.80;;;;;;;;;;5056136;28;20873;-71
2022/12/28 07:02:34;;;;;;;4.47;3.93;;;;;;;;;;5058445;28;20569;-71
2022/12/28 07:05:02;;;;;;;3.47;2.77;;;;;;;;;;5056189;28;21046;-71
2022/12/28 07:07:29;;;;;;;3.67;3.00;;;;;;;;;;5056590;28;20702;-71
2022/12/28 07:09:57;;;;;;;3.30;2.97;;;;;;;;;;5056438;28;21063;-71
2022/12/28 07:12:25;;;;;;;4.20;3.80;;;;;;;;;;5060128;28;20445;-71
2022/12/28 07:14:54;;;;;;;4.63;4.20;;;;;;;;;;5065850;28;20547;-71
2022/12/28 07:17:24;;;;;;;5.53;5.00;;;;;;;;;;5065154;28;20470;-71
2022/12/28 07:19:52;;;;;;;5.50;5.00;;;;;;;;;;5058239;28;20515;-71
2022/12/28 07:22:19;;;;;;;4.67;4.33;;;;;;;;;;5068961;28;20476;-71
2022/12/28 07:24:47;;;;;;;6.20;5.70;;;;;;;;;;5065763;28;20884;-71
2022/12/28 07:27:14;;;;;;;9.90;7.03;;;;;;;;;;5076078;28;20731;-70
2022/12/28 07:29:42;;;;;;;6.27;5.17;;;;;;;;;;5076372;28;20456;-71
2022/12/28 07:32:10;;;;;;;6.90;6.10;;;;;;;;;;5071743;28;20456;-71
2022/12/28 07:34:43;;;;;;;8.13;5.30;;;;;;;;;;5076485;28;20444;-71
2022/12/28 07:37:16;;;;;;;3.70;3.30;;;;;;;;;;5073251;28;20478;-72
2022/12/28 07:39:47;;;;;;;4.33;3.93;;;;;;;;;;5060333;28;20473;-72
2022/12/28 07:42:14;;;;;;;6.33;5.73;;;;;;;;;;5055262;28;20923;-72
2022/12/28 07:44:44;;;;;;;7.77;7.30;;;;;;;;;;5055558;28;20825;-71
2022/12/28 07:47:12;;;;;;;10.50;9.60;;;;;;;;;;5068401;28;20496;-72
2022/12/28 07:49:41;;;;;;;16.73;15.63;;;;;;;;;;5058072;28;20457;-72
2022/12/28 07:52:09;;;;;;;8.80;8.30;;;;;;;;;;5065125;28;20468;-72
2022/12/28 07:54:38;;;;;;;14.93;14.03;;;;;;;;;;5076028;28;20448;-73
2022/12/28 07:57:06;;;;;;;17.37;16.37;;;;;;;;;;5068849;28;20848;-72
2022/12/28 07:59:35;;;;;;;20.23;18.93;;;;;;;;;;5075101;28;20476;-72
2022/12/28 08:02:02;;;;;;;10.07;9.37;;;;;;;;;;5072965;28;20476;-72
2022/12/28 08:04:30;;;;;;;12.90;12.13;;;;;;;;;;5073844;28;20778;-72
2022/12/28 08:06:59;;;;;;;16.00;15.10;;;;;;;;;;5073279;28;20472;-70
2022/12/28 08:09:26;;;;;;;12.53;11.93;;;;;;;;;;5075957;28;20836;-70
2022/12/28 08:11:54;;;;;;;10.37;9.67;;;;;;;;;;5074337;28;20445;-71
2022/12/28 08:14:22;;;;;;;10.90;10.23;;;;;;;;;;5074420;28;20513;-71
2022/12/28 08:16:49;;;;;;;9.90;9.27;;;;;;;;;;5060279;28;21025;-71
2022/12/28 08:19:17;;;;;;;13.93;13.00;;;;;;;;;;5067284;28;20449;-72
2022/12/28 08:21:45;;;;;;;10.57;9.97;;;;;;;;;;5066988;28;21038;-72
2022/12/28 08:24:16;;;;;;;8.53;8.03;;;;;;;;;;5070148;28;20492;-72
2022/12/28 08:26:44;;;;;;;8.37;7.77;;;;;;;;;;5068796;28;20468;-72
2022/12/28 08:29:16;;;;;;;8.33;7.43;;;;;;;;;;5066720;28;20507;-72
2022/12/28 08:31:48;;;;;;;7.17;6.67;;;;;;;;;;5055254;28;20464;-72
2022/12/28 08:34:17;;;;;;;7.50;6.93;;;;;;;;;;5057620;28;20479;-71
2022/12/28 08:36:45;;;;;;;5.33;4.93;;;;;;;;;;5066141;28;20538;-71
2022/12/28 08:39:14;;;;;;;4.47;4.07;;;;;;;;;;5055267;28;20461;-71
2022/12/28 08:41:45;;;;;;;5.63;5.23;;;;;;;;;;5060901;28;20757;-71
2022/12/28 08:44:12;;;;;;;6.27;5.67;;;;;;;;;;5067256;28;20916;-71
2022/12/28 08:46:40;;;;;;;8.23;7.63;;;;;;;;;;5065271;28;20765;-71
2022/12/28 08:49:08;;;;;;;9.10;8.43;;;;;;;;;;5065078;28;20857;-70
2022/12/28 08:51:38;;;;;;;9.13;8.47;;;;;;;;;;5074353;28;20468;-70
2022/12/28 08:54:06;;;;;;;6.27;5.87;;;;;;;;;;5077168;28;20460;-71
2022/12/28 08:56:35;;;;;;;24.27;16.40;;;;;;;;;;5063583;28;20528;-72
2022/12/28 08:59:04;;;;;;;10.77;10.03;;;;;;;;;;5059739;28;20449;-71
2022/12/28 09:01:32;;;;;;;22.00;20.60;;;;;;;;;;5068561;28;20483;-71
2022/12/28 09:04:01;;;;;;;11.90;11.00;;;;;;;;;;5069863;28;20881;-72
2022/12/28 09:06:30;;;;;;;12.27;11.47;;;;;;;;;;5074245;28;20518;-71
2022/12/28 09:08:59;;;;;;;14.23;13.27;;;;;;;;;;5070418;28;20522;-72
2022/12/28 09:11:29;;;;;;;12.27;11.47;;;;;;;;;;5065835;28;20544;-71
2022/12/28 09:13:59;;;;;;;15.90;13.97;;;;;;;;;;5063181;28;20461;-71
2022/12/28 09:16:29;;;;;;;11.83;10.97;;;;;;;;;;5064448;28;20467;-71
2022/12/28 09:18:59;;;;;;;13.00;12.20;;;;;;;;;;5062145;28;20445;-72
2022/12/28 09:21:28;;;;;;;15.50;14.60;;;;;;;;;;5066310;28;20533;-71
2022/12/28 09:23:57;;;;;;;12.43;11.63;;;;;;;;;;5067239;28;20468;-71
2022/12/28 09:26:29;;;;;;;14.70;13.60;;;;;;;;;;5060751;28;20445;-70
2022/12/28 09:29:03;;;;;;;19.10;18.00;;;;;;;;;;5057538;28;20819;-70
2022/12/28 09:31:35;;;;;;;18.53;17.30;;;;;;;;;;5063461;28;20461;-71
2022/12/28 09:34:11;;;;;;;17.77;16.83;;;;;;;;;;5059432;28;20461;-71
2022/12/28 09:36:43;;;;;;;20.50;19.33;;;;;;;;;;5057670;28;20460;-71
2022/12/28 09:39:12;;;;;;;24.40;22.73;;;;;;;;;;5057523;28;20461;-72
2022/12/28 09:41:44;;;;;;;18.93;17.73;;;;;;;;;;5057922;28;20754;-72
2022/12/28 09:44:30;;;;;;;16.53;15.50;;;;;;;;;;5062223;28;20843;-72
2022/12/28 09:47:02;;;;;;;19.67;18.43;;;;;;;;;;5051178;28;20479;-71
2022/12/28 09:49:36;;;;;;;17.27;16.27;;;;;;;;;;5063624;28;20461;-72
2022/12/28 09:52:11;;;;;;;23.33;21.93;;;;;;;;;;5057136;28;20555;-72
2022/12/28 09:54:40;;;;;;;18.53;17.50;;;;;;;;;;5058895;28;20508;-71
2022/12/28 09:57:11;;;;;;;18.20;17.10;;;;;;;;;;5073681;28;20775;-72
2022/12/28 09:59:38;;;;;;;16.80;15.90;;;;;;;;;;5075680;28;20796;-71
2022/12/28 10:02:19;;;;;;;18.43;17.33;;;;;;;;;;5076568;28;20490;-71
2022/12/28 10:04:49;;;;;;;14.43;13.50;;;;;;;;;;5075910;28;20448;-72
2022/12/28 10:07:31;;;;;;;13.77;12.87;;;;;;;;;;5075191;28;20510;-71
2022/12/28 10:10:02;;;;;;;12.00;11.30;;;;;;;;;;5059584;28;20446;-71
2022/12/28 10:12:37;;;;;;;14.83;13.93;;;;;;;;;;5065372;28;20467;-71
2022/12/28 10:15:18;;;;;;;8.80;8.30;;;;;;;;;;5057336;28;20455;-71
2022/12/28 10:17:47;;;;;;;11.50;10.70;;;;;;;;;;5059865;28;20458;-71
2022/12/28 10:20:17;;;;;;;14.83;13.80;;;;;;;;;;5071366;28;20461;-70
2022/12/28 10:22:47;;;;;;;10.43;9.73;;;;;;;;;;5066637;28;20487;-71
2022/12/28 10:25:20;;;;;;;12.13;11.33;;;;;;;;;;5062842;28;20468;-71
2022/12/28 10:27:48;;;;;;;9.57;8.90;;;;;;;;;;5064911;28;20463;-71
2022/12/28 10:30:20;;;;;;;19.73;18.57;;;;;;;;;;5075610;28;20465;-71
2022/12/28 10:33:00;;;;;;;14.27;13.30;;;;;;;;;;5070898;28;20507;-71
2022/12/28 10:35:29;;;;;;;21.27;19.93;;;;;;;;;;5067855;28;20462;-71
2022/12/28 10:38:10;;;;;;;17.33;16.33;;;;;;;;;;5068024;28;20430;-71
2022/12/28 10:41:02;;;;;;;22.00;20.60;;;;;;;;;;5055499;28;20465;-71
2022/12/28 10:43:59;;;;;;;22.00;20.70;;;;;;;;;;5088073;28;20993;-71
2022/12/28 10:46:28;;;;;;;17.90;16.83;;;;;;;;;;5092634;28;20453;-71
2022/12/28 10:49:01;;;;;;;23.30;22.00;;;;;;;;;;5076117;28;20522;-71
2022/12/28 10:51:33;;;;;;;22.63;21.37;;;;;;;;;;5061993;28;20442;-72
2022/12/28 10:54:02;;;;;;;23.37;22.03;;;;;;;;;;5057870;28;20935;-71
2022/12/28 10:56:39;;;;;;;24.73;23.23;;;;;;;;;;5095835;28;20535;-72
2022/12/28 10:59:20;;;;;;;27.03;25.43;;;;;;;;;;5095964;28;20538;-71
2022/12/28 11:01:50;;;;;;;18.03;17.03;;;;;;;;;;5095480;28;20487;-71
2022/12/28 11:04:23;;;;;;;17.77;16.77;;;;;;;;;;5076825;28;20466;-71
2022/12/28 11:06:58;;;;;;;20.40;19.13;;;;;;;;;;5055273;28;20500;-71
2022/12/28 11:09:27;;;;;;;28.77;26.97;;;;;;;;;;5071771;28;20943;-71
2022/12/28 11:11:56;;;;;;;20.97;19.10;;;;;;;;;;5055784;28;20464;-71
2022/12/28 11:14:31;;;;;;;13.73;13.00;;;;;;;;;;5059857;28;20525;-71
2022/12/28 11:17:12;;;;;;;22.77;21.43;;;;;;;;;;5084783;28;20953;-71
2022/12/28 11:19:51;;;;;;;28.07;26.37;;;;;;;;;;5067012;28;20530;-72
2022/12/28 11:22:26;;;;;;;21.27;20.00;;;;;;;;;;5087541;28;20471;-72
2022/12/28 11:25:01;;;;;;;18.97;17.73;;;;;;;;;;5058355;28;20456;-72
2022/12/28 11:27:50;;;;;;;18.10;17.03;;;;;;;;;;5053532;28;20472;-72
2022/12/28 11:30:21;;;;;;;30.30;28.33;;;;;;;;;;5071966;28;20490;-71
2022/12/28 11:33:08;;;;;;;24.23;22.90;;;;;;;;;;5086618;28;20451;-72
2022/12/28 11:35:43;;;;;;;29.63;27.67;;;;;;;;;;5060199;28;20469;-71
2022/12/28 11:38:41;;;;;;;31.57;29.60;;;;;;;;;;5062930;28;20468;-71
2022/12/28 11:41:11;;;;;;;17.43;16.53;;;;;;;;;;5055352;28;20547;-71
2022/12/28 11:43:54;;;;;;;21.27;20.00;;;;;;;;;;5065255;28;20851;-71
2022/12/28 11:49:30;;;;;;;25.13;23.70;;;;;;;;;;5072661;28;20542;-71
2022/12/28 11:52:15;;;;;;;23.53;22.20;;;;;;;;;;5089058;28;20441;-71
2022/12/28 11:54:55;;;;;;;28.43;26.40;;;;;;;;;;5032095;28;20535;-71
2022/12/28 11:57:40;;;;;;;22.63;21.30;;;;;;;;;;5065216;28;20838;-70
2022/12/28 12:00:27;;;;;;;21.53;20.40;;;;;;;;;;5062711;28;20455;-71
2022/12/28 12:02:56;;;;;;;22.00;20.70;;;;;;;;;;5053050;28;20485;-71
2022/12/28 12:05:42;;;;;;;21.20;20.10;;;;;;;;;;5054835;28;20914;-71
2022/12/28 12:08:25;;;;;;;39.67;37.07;;;;;;;;;;5054163;28;21054;-72
2022/12/28 12:11:10;;;;;;;29.03;27.23;;;;;;;;;;5051911;28;20872;-72
2022/12/28 12:13:54;;;;;;;26.20;24.73;;;;;;;;;;5053799;28;20457;-72
2022/12/28 12:16:30;;;;;;;23.17;21.97;;;;;;;;;;5056912;28;20468;-72
2022/12/28 12:19:07;;;;;;;32.23;30.23;;;;;;;;;;5069797;28;20779;-74
2022/12/28 12:21:37;;;;;;;27.90;26.20;;;;;;;;;;5056855;28;20460;-72
2022/12/28 12:24:25;;;;;;;21.83;20.60;;;;;;;;;;5055279;28;20817;-72
2022/12/28 12:27:08;;;;;;;21.50;20.17;;;;;;;;;;5053294;28;20465;-71
2022/12/28 12:29:38;;;;;;;16.60;15.57;;;;;;;;;;5052941;28;20457;-73
2022/12/28 12:32:23;;;;;;;18.30;17.20;;;;;;;;;;5053024;28;20449;-72
2022/12/28 12:34:52;;;;;;;14.50;13.60;;;;;;;;;;5054860;28;20465;-72
2022/12/28 12:37:37;;;;;;;33.67;31.53;;;;;;;;;;5053768;28;20460;-72
2022/12/28 12:40:34;;;;;;;21.37;20.27;;;;;;;;;;5053147;28;20726;-72
2022/12/28 12:43:21;;;;;;;24.70;23.30;;;;;;;;;;5054109;28;20481;-72
2022/12/28 12:45:55;;;;;;;23.00;21.70;;;;;;;;;;5061603;28;20457;-72
2022/12/28 12:48:31;;;;;;;31.00;29.20;;;;;;;;;;5067129;28;20941;-72
2022/12/28 12:51:07;;;;;;;23.23;21.83;;;;;;;;;;5072522;28;20463;-72
2022/12/28 12:53:42;;;;;;;20.17;18.97;;;;;;;;;;5073275;28;20511;-71
2022/12/28 12:56:14;;;;;;;21.30;20.00;;;;;;;;;;5073450;28;20555;-71
2022/12/28 12:58:50;;;;;;;22.20;20.83;;;;;;;;;;5075337;28;20448;-71
2022/12/28 13:01:35;;;;;;;28.57;26.80;;;;;;;;;;5078339;28;20454;-71
2022/12/28 13:04:07;;;;;;;31.07;28.87;;;;;;;;;;5072307;28;20475;-71
2022/12/28 13:06:38;;;;;;;21.57;20.37;;;;;;;;;;5075449;28;20463;-72
2022/12/28 13:09:12;;;;;;;26.17;24.57;;;;;;;;;;5073835;28;20475;-72
2022/12/28 13:11:43;;;;;;;21.10;19.90;;;;;;;;;;5063635;28;20462;-71
2022/12/28 13:14:17;;;;;;;23.17;21.83;;;;;;;;;;5056967;28;20429;-71
2022/12/28 13:16:48;;;;;;;28.13;26.53;;;;;;;;;;5057213;28;20474;-71
2022/12/28 13:19:19;;;;;;;22.00;20.70;;;;;;;;;;5057926;28;20448;-73
2022/12/28 13:21:49;;;;;;;22.70;21.40;;;;;;;;;;5057292;28;21060;-72
2022/12/28 13:24:23;;;;;;;26.83;25.23;;;;;;;;;;5056192;28;20560;-72
2022/12/28 13:26:51;;;;;;;20.87;19.60;;;;;;;;;;5083303;28;20868;-72
2022/12/28 13:29:28;;;;;;;22.13;20.80;;;;;;;;;;5085779;28;20895;-72
2022/12/28 13:31:57;;;;;;;23.30;21.93;;;;;;;;;;5076973;28;20517;-71
2022/12/28 13:34:44;;;;;;;27.63;26.03;;;;;;;;;;5065184;28;20508;-72
2022/12/28 13:37:15;;;;;;;37.47;35.03;;;;;;;;;;5074301;28;20533;-72
2022/12/28 13:39:47;;;;;;;27.13;25.47;;;;;;;;;;5058514;28;20465;-71
2022/12/28 13:42:18;;;;;;;27.83;26.20;;;;;;;;;;5057210;28;20460;-71
2022/12/28 13:44:46;;;;;;;23.03;21.70;;;;;;;;;;5058792;28;20469;-72
2022/12/28 13:47:22;;;;;;;26.23;24.63;;;;;;;;;;5056400;28;20489;-72
2022/12/28 13:49:53;;;;;;;30.30;28.37;;;;;;;;;;5057089;28;20460;-72
2022/12/28 13:52:30;;;;;;;32.73;30.77;;;;;;;;;;5063032;28;20534;-73
2022/12/28 13:55:11;;;;;;;27.80;26.13;;;;;;;;;;5063990;28;20883;-72
2022/12/28 13:58:08;;;;;;;30.33;28.40;;;;;;;;;;5073579;28;20448;-72
2022/12/28 14:00:44;;;;;;;31.50;29.53;;;;;;;;;;5057159;28;20461;-72
2022/12/28 14:03:17;;;;;;;28.20;26.57;;;;;;;;;;5057066;28;20489;-71
2022/12/28 14:05:46;;;;;;;37.47;35.00;;;;;;;;;;5055961;28;20544;-72
2022/12/28 14:08:14;;;;;;;37.63;34.97;;;;;;;;;;5063132;28;20460;-72
2022/12/28 14:13:51;;;;;;;42.63;39.60;;;;;;;;;;5060969;28;20505;-71
2022/12/28 14:16:45;;;;;;;22.27;21.03;;;;;;;;;;5076861;28;20440;-72
2022/12/28 14:19:16;;;;;;;43.07;40.10;;;;;;;;;;5057609;28;20441;-71
2022/12/28 14:21:51;;;;;;;27.30;25.23;;;;;;;;;;5056128;28;20717;-72
2022/12/28 14:24:23;;;;;;;30.43;28.40;;;;;;;;;;5065117;28;20915;-72
2022/12/28 14:27:06;;;;;;;25.97;24.30;;;;;;;;;;5058643;28;21004;-72
2022/12/28 14:30:00;;;;;;;26.40;24.73;;;;;;;;;;5058028;28;20883;-72
2022/12/28 14:32:33;;;;;;;32.57;30.47;;;;;;;;;;5059196;28;20454;-72
2022/12/28 14:35:11;;;;;;;40.47;37.73;;;;;;;;;;5070377;28;20555;-71
2022/12/28 14:37:41;;;;;;;39.37;36.63;;;;;;;;;;5076857;28;20449;-70
2022/12/28 14:40:30;;;;;;;38.27;35.50;;;;;;;;;;5064979;28;20895;-71
2022/12/28 14:42:58;;;;;;;41.53;38.33;;;;;;;;;;5069567;28;20480;-72
2022/12/28 14:45:41;;;;;;;40.13;37.27;;;;;;;;;;5059623;28;20560;-71
2022/12/28 14:48:25;;;;;;;34.30;32.20;;;;;;;;;;5061069;28;21031;-71
2022/12/28 14:53:53;;;;;;;32.20;30.27;;;;;;;;;;5056949;28;20531;-72
2022/12/28 14:56:22;;;;;;;35.13;32.63;;;;;;;;;;5056668;28;20866;-71
2022/12/28 14:59:16;;;;;;;34.43;32.20;;;;;;;;;;5056753;28;20468;-72
2022/12/28 15:02:08;;;;;;;31.70;29.40;;;;;;;;;;5055581;28;20455;-76
2022/12/28 15:04:48;;;;;;;36.40;34.07;;;;;;;;;;5047534;28;21112;-71
2022/12/28 15:07:31;;;;;;;39.67;36.93;;;;;;;;;;5075239;28;20563;-71
2022/12/28 15:12:41;;;;;;;17.70;16.60;;;;;;;;;;5070783;28;20513;-72
2022/12/28 15:15:28;;;;;;;18.60;17.50;;;;;;;;;;5071531;28;20436;-72
2022/12/28 15:18:11;;;;;;;25.20;23.70;;;;;;;;;;5063838;28;20554;-72
2022/12/28 15:20:57;;;;;;;26.93;25.37;;;;;;;;;;5058921;28;20449;-71
2022/12/28 15:23:27;;;;;;;24.70;23.27;;;;;;;;;;5075209;28;20492;-72
2022/12/28 15:26:01;;;;;;;30.73;28.60;;;;;;;;;;5067779;28;20453;-72
2022/12/28 15:28:29;;;;;;;26.97;25.43;;;;;;;;;;5055030;28;20465;-72
2022/12/28 15:31:02;;;;;;;18.50;17.40;;;;;;;;;;5056241;28;20458;-72
2022/12/28 15:33:38;;;;;;;22.17;20.90;;;;;;;;;;5053655;28;20446;-72
2022/12/28 15:36:19;;;;;;;27.03;25.43;;;;;;;;;;5066075;28;20460;-72
2022/12/28 15:39:13;;;;;;;27.63;25.70;;;;;;;;;;5057485;28;20452;-72
2022/12/28 15:41:52;;;;;;;34.30;31.80;;;;;;;;;;5054313;28;20454;-72
2022/12/28 15:44:21;;;;;;;25.67;24.00;;;;;;;;;;5052153;28;21056;-71
2022/12/28 15:46:49;;;;;;;25.27;23.67;;;;;;;;;;5053876;28;20461;-72
2022/12/28 15:49:21;;;;;;;24.30;22.83;;;;;;;;;;5054365;28;20527;-72